Forest City, North Carolina
Current Conditions -  °F | °C
As of 4:55 AM on Monday 22 Dec 2014 (Local Time) from KFQD Reporting Station
Drizzle Drizzle  
Wind Chill: 41°   Ceiling: 1100
Heat Index: 41°   Visibility: 4mi
Dew Point: 40°   Wind: 3mph
Humidity: 95%   Direction: 30°NNE
Pressure: 30.11"   Gusts: NA
Location:  35.33°N, 81.86°W
Report Text: KFQD 220955Z AUTO 03003KT 4SM -DZ BKN011 OVC023 05/04 A3011 RMK AO2 T00500042
Loading
Personal Weather Stations






























Interactive Weather Map New forecast layout! Learn more

10-Day Weather Forecast

Advertisements
Track Severe Weather on mobile